Bullhead, South Dakota
Current Conditions -  °F | °C
As of 6:52 AM on Friday 24 Oct 2014 (Local Time) from KMBG Reporting Station
Clear Clear  
Wind Chill: 41°   Ceiling: Unl
Heat Index: 41°   Visibility: 10mi
Dew Point: 37°   Wind: 3mph
Humidity: 86%   Direction: 120°ESE
Pressure: 29.85"   Gusts: NA
Location:  45.77°N, 101.08°W
Report Text: KMBG 241252Z AUTO 12003KT 10SM CLR 05/03 A2985 RMK AO2 SLP115 T00500028
Loading
Personal Weather Stations






























Interactive Weather Map
Tropical Storm Tracking
New forecast layout! Learn more

10-Day Weather Forecast

Advertisements
Track Severe Weather on mobile